sensor_id;sensor_type;location;lat;lon;timestamp;P1;durP1;ratioP1;P2;durP2;ratioP2
73747;SDS011;62056;52.130;5.428;2023-04-16T00:02:12;2.50;;;1.37;;
73747;SDS011;62056;52.130;5.428;2023-04-16T00:04:39;3.95;;;1.08;;
73747;SDS011;62056;52.130;5.428;2023-04-16T00:07:07;4.90;;;1.40;;
73747;SDS011;62056;52.130;5.428;2023-04-16T00:09:33;5.80;;;1.40;;
73747;SDS011;62056;52.130;5.428;2023-04-16T00:12:00;6.72;;;1.33;;
73747;SDS011;62056;52.130;5.428;2023-04-16T00:14:27;9.50;;;1.27;;
73747;SDS011;62056;52.130;5.428;2023-04-16T00:16:54;5.30;;;1.25;;
73747;SDS011;62056;52.130;5.428;2023-04-16T00:19:21;5.93;;;1.35;;
73747;SDS011;62056;52.130;5.428;2023-04-16T00:21:48;4.28;;;1.25;;
73747;SDS011;62056;52.130;5.428;2023-04-16T00:24:14;7.18;;;1.33;;
73747;SDS011;62056;52.130;5.428;2023-04-16T00:26:41;8.80;;;1.50;;
73747;SDS011;62056;52.130;5.428;2023-04-16T00:29:09;4.50;;;1.48;;
73747;SDS011;62056;52.130;5.428;2023-04-16T00:31:36;3.95;;;1.58;;
73747;SDS011;62056;52.130;5.428;2023-04-16T00:34:03;7.50;;;1.35;;
73747;SDS011;62056;52.130;5.428;2023-04-16T00:36:30;5.65;;;1.65;;
73747;SDS011;62056;52.130;5.428;2023-04-16T00:38:57;10.20;;;2.20;;
73747;SDS011;62056;52.130;5.428;2023-04-16T00:41:23;9.38;;;1.73;;
73747;SDS011;62056;52.130;5.428;2023-04-16T00:43:51;8.02;;;1.33;;
73747;SDS011;62056;52.130;5.428;2023-04-16T00:46:18;2.90;;;0.98;;
73747;SDS011;62056;52.130;5.428;2023-04-16T00:48:47;7.50;;;1.20;;
73747;SDS011;62056;52.130;5.428;2023-04-16T00:51:15;5.80;;;1.80;;
73747;SDS011;62056;52.130;5.428;2023-04-16T00:53:46;6.63;;;1.60;;
73747;SDS011;62056;52.130;5.428;2023-04-16T00:56:13;12.38;;;2.47;;
73747;SDS011;62056;52.130;5.428;2023-04-16T00:58:39;7.55;;;2.00;;
73747;SDS011;62056;52.130;5.428;2023-04-16T01:01:06;5.05;;;2.28;;
73747;SDS011;62056;52.130;5.428;2023-04-16T01:03:36;5.93;;;1.63;;
73747;SDS011;62056;52.130;5.428;2023-04-16T01:06:05;13.52;;;2.55;;
73747;SDS011;62056;52.130;5.428;2023-04-16T01:08:32;4.72;;;2.50;;
73747;SDS011;62056;52.130;5.428;2023-04-16T01:10:59;11.32;;;2.13;;
73747;SDS011;62056;52.130;5.428;2023-04-16T01:13:26;6.43;;;2.42;;
73747;SDS011;62056;52.130;5.428;2023-04-16T01:15:53;6.83;;;2.27;;
73747;SDS011;62056;52.130;5.428;2023-04-16T01:18:20;9.35;;;2.88;;
73747;SDS011;62056;52.130;5.428;2023-04-16T01:20:49;14.02;;;2.72;;
73747;SDS011;62056;52.130;5.428;2023-04-16T01:23:16;10.27;;;2.70;;
73747;SDS011;62056;52.130;5.428;2023-04-16T01:25:44;11.00;;;3.28;;
73747;SDS011;62056;52.130;5.428;2023-04-16T01:28:11;12.83;;;2.50;;
73747;SDS011;62056;52.130;5.428;2023-04-16T01:30:38;9.02;;;3.05;;
73747;SDS011;62056;52.130;5.428;2023-04-16T01:33:05;9.98;;;2.70;;
73747;SDS011;62056;52.130;5.428;2023-04-16T01:35:33;5.50;;;2.60;;
73747;SDS011;62056;52.130;5.428;2023-04-16T01:37:59;9.93;;;2.78;;
73747;SDS011;62056;52.130;5.428;2023-04-16T01:40:26;7.77;;;2.30;;
73747;SDS011;62056;52.130;5.428;2023-04-16T01:42:53;5.78;;;2.33;;
73747;SDS011;62056;52.130;5.428;2023-04-16T01:45:20;7.78;;;2.53;;
73747;SDS011;62056;52.130;5.428;2023-04-16T01:47:48;12.50;;;2.75;;
73747;SDS011;62056;52.130;5.428;2023-04-16T01:50:16;6.40;;;2.38;;
73747;SDS011;62056;52.130;5.428;2023-04-16T01:52:43;5.03;;;1.77;;
73747;SDS011;62056;52.130;5.428;2023-04-16T01:55:11;14.07;;;3.53;;
73747;SDS011;62056;52.130;5.428;2023-04-16T01:57:38;11.73;;;3.22;;
73747;SDS011;62056;52.130;5.428;2023-04-16T02:00:07;8.75;;;3.10;;
73747;SDS011;62056;52.130;5.428;2023-04-16T02:02:34;16.95;;;3.85;;
73747;SDS011;62056;52.130;5.428;2023-04-16T02:05:01;6.13;;;3.20;;
73747;SDS011;62056;52.130;5.428;2023-04-16T02:07:28;12.15;;;3.03;;
73747;SDS011;62056;52.130;5.428;2023-04-16T02:09:56;17.25;;;4.78;;
73747;SDS011;62056;52.130;5.428;2023-04-16T02:12:23;11.10;;;3.85;;
73747;SDS011;62056;52.130;5.428;2023-04-16T02:14:51;12.48;;;4.30;;
73747;SDS011;62056;52.130;5.428;2023-04-16T02:17:18;12.30;;;4.07;;
73747;SDS011;62056;52.130;5.428;2023-04-16T02:19:44;16.10;;;4.45;;
73747;SDS011;62056;52.130;5.428;2023-04-16T02:22:11;15.23;;;4.60;;
73747;SDS011;62056;52.130;5.428;2023-04-16T02:24:38;11.57;;;4.80;;
73747;SDS011;62056;52.130;5.428;2023-04-16T02:27:04;11.90;;;3.85;;
73747;SDS011;62056;52.130;5.428;2023-04-16T02:29:31;16.00;;;4.83;;
73747;SDS011;62056;52.130;5.428;2023-04-16T02:31:58;10.57;;;3.88;;
73747;SDS011;62056;52.130;5.428;2023-04-16T02:34:25;9.77;;;4.40;;
73747;SDS011;62056;52.130;5.428;2023-04-16T02:36:51;13.35;;;3.67;;
73747;SDS011;62056;52.130;5.428;2023-04-16T02:39:19;16.13;;;5.28;;
73747;SDS011;62056;52.130;5.428;2023-04-16T02:41:46;13.90;;;4.37;;
73747;SDS011;62056;52.130;5.428;2023-04-16T02:44:12;10.43;;;3.63;;
73747;SDS011;62056;52.130;5.428;2023-04-16T02:46:39;12.88;;;4.97;;
73747;SDS011;62056;52.130;5.428;2023-04-16T02:49:06;8.68;;;4.03;;
73747;SDS011;62056;52.130;5.428;2023-04-16T02:51:33;20.35;;;5.30;;
73747;SDS011;62056;52.130;5.428;2023-04-16T02:54:00;12.63;;;4.77;;
73747;SDS011;62056;52.130;5.428;2023-04-16T02:56:35;11.60;;;4.57;;
73747;SDS011;62056;52.130;5.428;2023-04-16T02:59:02;10.05;;;5.53;;
73747;SDS011;62056;52.130;5.428;2023-04-16T03:01:29;13.45;;;5.57;;
73747;SDS011;62056;52.130;5.428;2023-04-16T03:03:56;14.35;;;5.65;;
73747;SDS011;62056;52.130;5.428;2023-04-16T03:06:23;13.63;;;5.13;;
73747;SDS011;62056;52.130;5.428;2023-04-16T03:08:49;11.20;;;5.38;;
73747;SDS011;62056;52.130;5.428;2023-04-16T03:11:16;9.60;;;4.53;;
73747;SDS011;62056;52.130;5.428;2023-04-16T03:13:43;10.27;;;4.95;;
73747;SDS011;62056;52.130;5.428;2023-04-16T03:16:09;13.43;;;5.60;;
73747;SDS011;62056;52.130;5.428;2023-04-16T03:18:36;17.33;;;6.77;;
73747;SDS011;62056;52.130;5.428;2023-04-16T03:21:03;20.15;;;6.22;;
73747;SDS011;62056;52.130;5.428;2023-04-16T03:23:30;21.73;;;7.20;;
73747;SDS011;62056;52.130;5.428;2023-04-16T03:25:56;7.38;;;5.07;;
73747;SDS011;62056;52.130;5.428;2023-04-16T03:28:23;14.07;;;6.05;;
73747;SDS011;62056;52.130;5.428;2023-04-16T03:30:50;11.37;;;4.03;;
73747;SDS011;62056;52.130;5.428;2023-04-16T03:33:18;15.90;;;5.15;;
73747;SDS011;62056;52.130;5.428;2023-04-16T03:35:45;13.73;;;5.97;;
73747;SDS011;62056;52.130;5.428;2023-04-16T03:38:39;14.45;;;6.25;;
73747;SDS011;62056;52.130;5.428;2023-04-16T03:41:06;8.63;;;5.25;;
73747;SDS011;62056;52.130;5.428;2023-04-16T03:43:35;16.47;;;5.93;;
73747;SDS011;62056;52.130;5.428;2023-04-16T03:46:02;12.90;;;5.55;;
73747;SDS011;62056;52.130;5.428;2023-04-16T03:48:28;12.15;;;5.00;;
73747;SDS011;62056;52.130;5.428;2023-04-16T03:50:55;11.50;;;5.05;;
73747;SDS011;62056;52.130;5.428;2023-04-16T03:53:22;12.45;;;4.63;;
73747;SDS011;62056;52.130;5.428;2023-04-16T03:55:49;8.33;;;4.80;;
73747;SDS011;62056;52.130;5.428;2023-04-16T03:58:17;10.10;;;5.30;;
73747;SDS011;62056;52.130;5.428;2023-04-16T04:00:43;15.35;;;6.47;;
73747;SDS011;62056;52.130;5.428;2023-04-16T04:03:10;12.50;;;5.82;;
73747;SDS011;62056;52.130;5.428;2023-04-16T04:05:40;13.73;;;6.28;;
73747;SDS011;62056;52.130;5.428;2023-04-16T04:08:08;8.27;;;4.53;;
73747;SDS011;62056;52.130;5.428;2023-04-16T04:10:35;19.67;;;6.97;;
73747;SDS011;62056;52.130;5.428;2023-04-16T04:13:03;12.15;;;6.13;;
73747;SDS011;62056;52.130;5.428;2023-04-16T04:15:31;15.68;;;5.95;;
73747;SDS011;62056;52.130;5.428;2023-04-16T04:17:58;17.25;;;6.95;;
73747;SDS011;62056;52.130;5.428;2023-04-16T04:20:25;12.47;;;6.13;;
73747;SDS011;62056;52.130;5.428;2023-04-16T04:22:51;15.52;;;7.10;;
73747;SDS011;62056;52.130;5.428;2023-04-16T04:25:18;10.35;;;5.18;;
73747;SDS011;62056;52.130;5.428;2023-04-16T04:27:45;14.07;;;6.32;;
73747;SDS011;62056;52.130;5.428;2023-04-16T04:30:11;17.65;;;7.35;;
73747;SDS011;62056;52.130;5.428;2023-04-16T04:32:38;16.83;;;6.33;;
73747;SDS011;62056;52.130;5.428;2023-04-16T04:35:05;12.10;;;6.28;;
73747;SDS011;62056;52.130;5.428;2023-04-16T04:37:32;15.43;;;6.68;;
73747;SDS011;62056;52.130;5.428;2023-04-16T04:39:58;19.40;;;6.80;;
73747;SDS011;62056;52.130;5.428;2023-04-16T04:42:25;14.77;;;5.97;;
73747;SDS011;62056;52.130;5.428;2023-04-16T04:44:52;14.37;;;6.07;;
73747;SDS011;62056;52.130;5.428;2023-04-16T04:47:19;13.10;;;5.88;;
73747;SDS011;62056;52.130;5.428;2023-04-16T04:49:45;20.10;;;6.78;;
73747;SDS011;62056;52.130;5.428;2023-04-16T04:52:12;16.58;;;5.80;;
73747;SDS011;62056;52.130;5.428;2023-04-16T04:54:39;12.20;;;6.03;;
73747;SDS011;62056;52.130;5.428;2023-04-16T04:57:07;15.70;;;6.10;;
73747;SDS011;62056;52.130;5.428;2023-04-16T04:59:33;10.10;;;5.47;;
73747;SDS011;62056;52.130;5.428;2023-04-16T05:02:00;14.05;;;5.75;;
73747;SDS011;62056;52.130;5.428;2023-04-16T05:04:29;16.42;;;6.03;;
73747;SDS011;62056;52.130;5.428;2023-04-16T05:06:56;17.38;;;6.97;;
73747;SDS011;62056;52.130;5.428;2023-04-16T05:09:23;13.07;;;6.63;;
73747;SDS011;62056;52.130;5.428;2023-04-16T05:11:49;15.00;;;6.22;;
73747;SDS011;62056;52.130;5.428;2023-04-16T05:14:16;17.25;;;5.18;;
73747;SDS011;62056;52.130;5.428;2023-04-16T05:16:43;15.02;;;6.68;;
73747;SDS011;62056;52.130;5.428;2023-04-16T05:19:09;11.63;;;5.05;;
73747;SDS011;62056;52.130;5.428;2023-04-16T05:21:36;13.27;;;5.97;;
73747;SDS011;62056;52.130;5.428;2023-04-16T05:24:03;16.77;;;7.00;;
73747;SDS011;62056;52.130;5.428;2023-04-16T05:26:29;20.05;;;6.40;;
73747;SDS011;62056;52.130;5.428;2023-04-16T05:28:56;14.85;;;6.32;;
73747;SDS011;62056;52.130;5.428;2023-04-16T05:31:23;12.23;;;6.10;;
73747;SDS011;62056;52.130;5.428;2023-04-16T05:33:50;19.93;;;7.10;;
73747;SDS011;62056;52.130;5.428;2023-04-16T05:36:16;20.90;;;6.75;;
73747;SDS011;62056;52.130;5.428;2023-04-16T05:38:43;16.52;;;5.95;;
73747;SDS011;62056;52.130;5.428;2023-04-16T05:41:10;13.65;;;6.13;;
73747;SDS011;62056;52.130;5.428;2023-04-16T05:44:04;20.80;;;6.78;;
73747;SDS011;62056;52.130;5.428;2023-04-16T05:46:31;11.53;;;5.80;;
73747;SDS011;62056;52.130;5.428;2023-04-16T05:48:58;19.75;;;6.25;;
73747;SDS011;62056;52.130;5.428;2023-04-16T05:51:24;13.43;;;6.32;;
73747;SDS011;62056;52.130;5.428;2023-04-16T05:54:20;10.70;;;5.22;;
73747;SDS011;62056;52.130;5.428;2023-04-16T05:56:47;13.15;;;5.88;;
73747;SDS011;62056;52.130;5.428;2023-04-16T05:59:14;16.33;;;6.23;;
73747;SDS011;62056;52.130;5.428;2023-04-16T06:01:40;15.30;;;6.50;;
73747;SDS011;62056;52.130;5.428;2023-04-16T06:04:35;17.63;;;6.40;;
73747;SDS011;62056;52.130;5.428;2023-04-16T06:07:02;14.25;;;6.07;;
73747;SDS011;62056;52.130;5.428;2023-04-16T06:09:30;18.75;;;6.35;;
73747;SDS011;62056;52.130;5.428;2023-04-16T06:11:59;21.70;;;7.03;;
73747;SDS011;62056;52.130;5.428;2023-04-16T06:14:26;16.42;;;5.70;;
73747;SDS011;62056;52.130;5.428;2023-04-16T06:16:53;16.00;;;5.80;;
73747;SDS011;62056;52.130;5.428;2023-04-16T06:19:19;13.93;;;6.85;;
73747;SDS011;62056;52.130;5.428;2023-04-16T06:21:46;14.13;;;6.22;;
73747;SDS011;62056;52.130;5.428;2023-04-16T06:24:13;13.50;;;6.27;;
73747;SDS011;62056;52.130;5.428;2023-04-16T06:26:39;16.60;;;6.45;;
73747;SDS011;62056;52.130;5.428;2023-04-16T06:29:06;15.35;;;6.65;;
73747;SDS011;62056;52.130;5.428;2023-04-16T06:31:33;20.95;;;7.63;;
73747;SDS011;62056;52.130;5.428;2023-04-16T06:34:00;13.93;;;6.85;;
73747;SDS011;62056;52.130;5.428;2023-04-16T06:36:27;14.33;;;8.20;;
73747;SDS011;62056;52.130;5.428;2023-04-16T06:38:54;19.20;;;6.90;;
73747;SDS011;62056;52.130;5.428;2023-04-16T06:41:21;20.63;;;7.13;;
73747;SDS011;62056;52.130;5.428;2023-04-16T06:43:51;14.20;;;6.20;;
73747;SDS011;62056;52.130;5.428;2023-04-16T06:46:17;15.75;;;7.55;;
73747;SDS011;62056;52.130;5.428;2023-04-16T06:48:44;19.20;;;7.80;;
73747;SDS011;62056;52.130;5.428;2023-04-16T06:51:11;16.83;;;7.63;;
73747;SDS011;62056;52.130;5.428;2023-04-16T06:53:38;18.55;;;7.85;;
73747;SDS011;62056;52.130;5.428;2023-04-16T06:56:05;22.17;;;8.23;;
73747;SDS011;62056;52.130;5.428;2023-04-16T06:58:32;15.25;;;7.68;;
73747;SDS011;62056;52.130;5.428;2023-04-16T07:00:59;16.97;;;7.50;;
73747;SDS011;62056;52.130;5.428;2023-04-16T07:03:27;16.23;;;7.57;;
73747;SDS011;62056;52.130;5.428;2023-04-16T07:05:55;13.50;;;7.47;;
73747;SDS011;62056;52.130;5.428;2023-04-16T07:08:22;13.25;;;8.23;;
73747;SDS011;62056;52.130;5.428;2023-04-16T07:10:49;15.35;;;7.18;;
73747;SDS011;62056;52.130;5.428;2023-04-16T07:13:18;15.03;;;8.63;;
73747;SDS011;62056;52.130;5.428;2023-04-16T07:15:44;16.23;;;8.50;;
73747;SDS011;62056;52.130;5.428;2023-04-16T07:18:11;12.13;;;7.15;;
73747;SDS011;62056;52.130;5.428;2023-04-16T07:20:38;16.50;;;7.93;;
73747;SDS011;62056;52.130;5.428;2023-04-16T07:23:04;16.98;;;8.45;;
73747;SDS011;62056;52.130;5.428;2023-04-16T07:25:31;21.67;;;9.07;;
73747;SDS011;62056;52.130;5.428;2023-04-16T07:27:58;13.57;;;8.73;;
73747;SDS011;62056;52.130;5.428;2023-04-16T07:30:24;14.63;;;8.80;;
73747;SDS011;62056;52.130;5.428;2023-04-16T07:32:58;16.48;;;7.40;;
73747;SDS011;62056;52.130;5.428;2023-04-16T07:35:25;16.02;;;8.43;;
73747;SDS011;62056;52.130;5.428;2023-04-16T07:37:52;16.37;;;8.33;;
73747;SDS011;62056;52.130;5.428;2023-04-16T07:40:18;12.38;;;8.13;;
73747;SDS011;62056;52.130;5.428;2023-04-16T07:42:45;11.55;;;6.28;;
73747;SDS011;62056;52.130;5.428;2023-04-16T07:45:12;14.15;;;7.63;;
73747;SDS011;62056;52.130;5.428;2023-04-16T07:47:38;17.95;;;7.55;;
73747;SDS011;62056;52.130;5.428;2023-04-16T07:50:06;15.17;;;6.83;;
73747;SDS011;62056;52.130;5.428;2023-04-16T07:52:33;11.68;;;6.15;;
73747;SDS011;62056;52.130;5.428;2023-04-16T07:55:00;11.68;;;7.22;;
73747;SDS011;62056;52.130;5.428;2023-04-16T07:57:27;14.57;;;7.13;;
73747;SDS011;62056;52.130;5.428;2023-04-16T07:59:54;10.43;;;7.07;;
73747;SDS011;62056;52.130;5.428;2023-04-16T08:02:21;11.67;;;5.97;;
73747;SDS011;62056;52.130;5.428;2023-04-16T08:04:48;10.95;;;6.05;;
73747;SDS011;62056;52.130;5.428;2023-04-16T08:07:14;12.93;;;5.93;;
73747;SDS011;62056;52.130;5.428;2023-04-16T08:09:47;13.48;;;6.72;;
73747;SDS011;62056;52.130;5.428;2023-04-16T08:12:16;10.50;;;6.15;;
73747;SDS011;62056;52.130;5.428;2023-04-16T08:14:48;7.43;;;4.87;;
73747;SDS011;62056;52.130;5.428;2023-04-16T08:17:15;9.75;;;5.07;;
73747;SDS011;62056;52.130;5.428;2023-04-16T08:19:42;14.75;;;4.45;;
73747;SDS011;62056;52.130;5.428;2023-04-16T08:22:12;13.52;;;5.45;;
73747;SDS011;62056;52.130;5.428;2023-04-16T08:24:44;8.55;;;4.75;;
73747;SDS011;62056;52.130;5.428;2023-04-16T08:27:11;11.10;;;5.30;;
73747;SDS011;62056;52.130;5.428;2023-04-16T08:29:45;9.40;;;4.70;;
73747;SDS011;62056;52.130;5.428;2023-04-16T08:32:13;8.50;;;5.07;;
73747;SDS011;62056;52.130;5.428;2023-04-16T08:34:40;6.07;;;4.38;;
73747;SDS011;62056;52.130;5.428;2023-04-16T08:37:07;8.15;;;4.22;;
73747;SDS011;62056;52.130;5.428;2023-04-16T08:39:34;5.20;;;3.80;;
73747;SDS011;62056;52.130;5.428;2023-04-16T08:42:01;7.80;;;4.00;;
73747;SDS011;62056;52.130;5.428;2023-04-16T08:45:13;5.85;;;3.92;;
73747;SDS011;62056;52.130;5.428;2023-04-16T08:48:10;6.03;;;3.47;;
73747;SDS011;62056;52.130;5.428;2023-04-16T08:50:37;4.15;;;3.20;;
73747;SDS011;62056;52.130;5.428;2023-04-16T08:53:06;4.10;;;3.33;;
73747;SDS011;62056;52.130;5.428;2023-04-16T08:56:04;5.88;;;3.30;;
73747;SDS011;62056;52.130;5.428;2023-04-16T08:58:34;3.25;;;2.47;;
73747;SDS011;62056;52.130;5.428;2023-04-16T09:01:03;4.28;;;2.85;;
73747;SDS011;62056;52.130;5.428;2023-04-16T09:03:31;6.40;;;3.60;;
73747;SDS011;62056;52.130;5.428;2023-04-16T09:06:01;6.27;;;2.57;;
73747;SDS011;62056;52.130;5.428;2023-04-16T09:08:30;5.18;;;2.92;;
73747;SDS011;62056;52.130;5.428;2023-04-16T09:14:01;3.17;;;2.70;;
73747;SDS011;62056;52.130;5.428;2023-04-16T09:16:31;5.70;;;3.25;;
73747;SDS011;62056;52.130;5.428;2023-04-16T09:18:59;5.30;;;3.33;;
73747;SDS011;62056;52.130;5.428;2023-04-16T09:21:26;6.20;;;3.40;;
73747;SDS011;62056;52.130;5.428;2023-04-16T09:23:53;6.63;;;3.38;;
73747;SDS011;62056;52.130;5.428;2023-04-16T09:26:20;6.82;;;3.50;;
73747;SDS011;62056;52.130;5.428;2023-04-16T09:28:47;3.75;;;3.38;;
73747;SDS011;62056;52.130;5.428;2023-04-16T09:31:17;5.73;;;3.30;;
73747;SDS011;62056;52.130;5.428;2023-04-16T09:34:02;4.40;;;3.80;;
73747;SDS011;62056;52.130;5.428;2023-04-16T09:36:31;5.47;;;3.53;;
73747;SDS011;62056;52.130;5.428;2023-04-16T09:38:59;4.13;;;3.53;;
73747;SDS011;62056;52.130;5.428;2023-04-16T09:41:30;4.70;;;3.30;;
73747;SDS011;62056;52.130;5.428;2023-04-16T09:44:00;5.13;;;3.23;;
73747;SDS011;62056;52.130;5.428;2023-04-16T09:46:32;5.53;;;3.55;;
73747;SDS011;62056;52.130;5.428;2023-04-16T09:49:04;8.68;;;3.85;;
73747;SDS011;62056;52.130;5.428;2023-04-16T09:51:45;6.22;;;4.57;;
73747;SDS011;62056;52.130;5.428;2023-04-16T09:54:14;5.70;;;3.60;;
73747;SDS011;62056;52.130;5.428;2023-04-16T09:56:44;3.70;;;2.73;;
73747;SDS011;62056;52.130;5.428;2023-04-16T09:59:15;7.85;;;3.15;;
73747;SDS011;62056;52.130;5.428;2023-04-16T10:01:44;7.07;;;4.40;;
73747;SDS011;62056;52.130;5.428;2023-04-16T10:04:12;11.43;;;4.60;;
73747;SDS011;62056;52.130;5.428;2023-04-16T10:06:39;9.65;;;4.07;;
73747;SDS011;62056;52.130;5.428;2023-04-16T10:09:09;9.37;;;3.47;;
73747;SDS011;62056;52.130;5.428;2023-04-16T10:11:36;4.38;;;3.88;;
73747;SDS011;62056;52.130;5.428;2023-04-16T10:14:03;5.65;;;3.65;;
73747;SDS011;62056;52.130;5.428;2023-04-16T10:16:30;5.38;;;4.03;;
73747;SDS011;62056;52.130;5.428;2023-04-16T10:18:58;7.78;;;3.72;;
73747;SDS011;62056;52.130;5.428;2023-04-16T10:21:25;8.90;;;4.97;;
73747;SDS011;62056;52.130;5.428;2023-04-16T10:23:59;7.10;;;5.10;;
73747;SDS011;62056;52.130;5.428;2023-04-16T10:26:28;11.93;;;4.70;;
73747;SDS011;62056;52.130;5.428;2023-04-16T10:28:55;10.45;;;5.35;;
73747;SDS011;62056;52.130;5.428;2023-04-16T10:31:24;14.02;;;6.32;;
73747;SDS011;62056;52.130;5.428;2023-04-16T10:33:52;17.13;;;6.17;;
73747;SDS011;62056;52.130;5.428;2023-04-16T10:36:23;12.10;;;5.93;;
73747;SDS011;62056;52.130;5.428;2023-04-16T10:38:52;10.88;;;5.03;;
73747;SDS011;62056;52.130;5.428;2023-04-16T10:41:24;18.75;;;6.95;;
73747;SDS011;62056;52.130;5.428;2023-04-16T10:43:52;14.18;;;6.43;;
73747;SDS011;62056;52.130;5.428;2023-04-16T10:46:29;16.83;;;5.83;;
73747;SDS011;62056;52.130;5.428;2023-04-16T10:48:59;9.93;;;5.53;;
73747;SDS011;62056;52.130;5.428;2023-04-16T10:51:29;9.70;;;4.53;;
73747;SDS011;62056;52.130;5.428;2023-04-16T10:54:03;10.32;;;5.05;;
73747;SDS011;62056;52.130;5.428;2023-04-16T10:56:39;11.00;;;4.70;;
73747;SDS011;62056;52.130;5.428;2023-04-16T10:59:06;14.17;;;4.93;;
73747;SDS011;62056;52.130;5.428;2023-04-16T11:01:38;13.85;;;6.72;;
73747;SDS011;62056;52.130;5.428;2023-04-16T11:07:05;10.65;;;4.85;;
73747;SDS011;62056;52.130;5.428;2023-04-16T11:12:32;8.90;;;4.63;;
73747;SDS011;62056;52.130;5.428;2023-04-16T11:15:02;10.65;;;5.63;;
73747;SDS011;62056;52.130;5.428;2023-04-16T11:17:32;8.93;;;4.78;;
73747;SDS011;62056;52.130;5.428;2023-04-16T11:20:04;8.38;;;5.40;;
73747;SDS011;62056;52.130;5.428;2023-04-16T11:22:45;9.63;;;5.20;;
73747;SDS011;62056;52.130;5.428;2023-04-16T11:25:23;10.97;;;5.27;;
73747;SDS011;62056;52.130;5.428;2023-04-16T11:27:53;5.65;;;4.65;;
73747;SDS011;62056;52.130;5.428;2023-04-16T11:30:27;8.77;;;6.18;;
73747;SDS011;62056;52.130;5.428;2023-04-16T11:33:09;6.10;;;4.45;;
73747;SDS011;62056;52.130;5.428;2023-04-16T11:35:37;8.35;;;5.13;;
73747;SDS011;62056;52.130;5.428;2023-04-16T11:38:04;7.87;;;5.33;;
73747;SDS011;62056;52.130;5.428;2023-04-16T11:40:33;12.55;;;6.07;;
73747;SDS011;62056;52.130;5.428;2023-04-16T11:43:13;11.35;;;6.28;;
73747;SDS011;62056;52.130;5.428;2023-04-16T11:46:01;12.80;;;6.13;;
73747;SDS011;62056;52.130;5.428;2023-04-16T11:48:49;13.05;;;6.53;;
73747;SDS011;62056;52.130;5.428;2023-04-16T11:51:20;17.60;;;6.40;;
73747;SDS011;62056;52.130;5.428;2023-04-16T11:53:50;11.48;;;5.20;;
73747;SDS011;62056;52.130;5.428;2023-04-16T11:56:25;8.27;;;6.28;;
73747;SDS011;62056;52.130;5.428;2023-04-16T11:59:14;8.50;;;5.30;;
73747;SDS011;62056;52.130;5.428;2023-04-16T12:01:45;11.52;;;6.15;;
73747;SDS011;62056;52.130;5.428;2023-04-16T12:04:14;10.20;;;5.17;;
73747;SDS011;62056;52.130;5.428;2023-04-16T12:09:37;11.05;;;6.78;;
73747;SDS011;62056;52.130;5.428;2023-04-16T12:12:23;13.38;;;6.93;;
73747;SDS011;62056;52.130;5.428;2023-04-16T12:14:51;15.45;;;6.50;;
73747;SDS011;62056;52.130;5.428;2023-04-16T12:17:19;8.37;;;5.00;;
73747;SDS011;62056;52.130;5.428;2023-04-16T12:19:47;6.72;;;5.40;;
73747;SDS011;62056;52.130;5.428;2023-04-16T12:22:16;13.10;;;5.22;;
73747;SDS011;62056;52.130;5.428;2023-04-16T12:24:43;11.80;;;5.38;;
73747;SDS011;62056;52.130;5.428;2023-04-16T12:27:10;9.73;;;6.57;;
73747;SDS011;62056;52.130;5.428;2023-04-16T12:29:36;10.57;;;5.40;;
73747;SDS011;62056;52.130;5.428;2023-04-16T12:32:03;8.40;;;5.47;;
73747;SDS011;62056;52.130;5.428;2023-04-16T12:34:30;13.40;;;6.72;;
73747;SDS011;62056;52.130;5.428;2023-04-16T12:37:14;11.25;;;5.03;;
73747;SDS011;62056;52.130;5.428;2023-04-16T12:39:41;14.18;;;4.38;;
73747;SDS011;62056;52.130;5.428;2023-04-16T12:42:08;13.37;;;4.93;;
73747;SDS011;62056;52.130;5.428;2023-04-16T12:44:36;9.75;;;4.70;;
73747;SDS011;62056;52.130;5.428;2023-04-16T12:47:03;12.27;;;5.72;;
73747;SDS011;62056;52.130;5.428;2023-04-16T12:49:30;14.25;;;5.05;;
73747;SDS011;62056;52.130;5.428;2023-04-16T12:51:57;6.25;;;4.68;;
73747;SDS011;62056;52.130;5.428;2023-04-16T12:54:24;5.53;;;4.23;;
73747;SDS011;62056;52.130;5.428;2023-04-16T12:56:54;10.18;;;5.25;;
73747;SDS011;62056;52.130;5.428;2023-04-16T12:59:21;9.43;;;4.97;;
73747;SDS011;62056;52.130;5.428;2023-04-16T13:01:47;6.13;;;4.82;;
73747;SDS011;62056;52.130;5.428;2023-04-16T13:04:14;7.55;;;4.90;;
73747;SDS011;62056;52.130;5.428;2023-04-16T13:06:43;7.13;;;5.03;;
73747;SDS011;62056;52.130;5.428;2023-04-16T13:09:10;6.68;;;4.00;;
73747;SDS011;62056;52.130;5.428;2023-04-16T13:15:15;12.50;;;6.18;;
73747;SDS011;62056;52.130;5.428;2023-04-16T13:17:44;14.48;;;5.95;;
73747;SDS011;62056;52.130;5.428;2023-04-16T13:20:11;8.47;;;5.23;;
73747;SDS011;62056;52.130;5.428;2023-04-16T13:22:38;10.60;;;5.22;;
73747;SDS011;62056;52.130;5.428;2023-04-16T13:25:04;12.75;;;5.90;;
73747;SDS011;62056;52.130;5.428;2023-04-16T13:27:32;12.98;;;5.97;;
73747;SDS011;62056;52.130;5.428;2023-04-16T13:29:58;12.45;;;6.22;;
73747;SDS011;62056;52.130;5.428;2023-04-16T13:32:25;14.63;;;7.17;;
73747;SDS011;62056;52.130;5.428;2023-04-16T13:34:52;21.58;;;7.22;;
73747;SDS011;62056;52.130;5.428;2023-04-16T13:37:19;13.85;;;7.35;;
73747;SDS011;62056;52.130;5.428;2023-04-16T13:39:45;14.02;;;6.82;;
73747;SDS011;62056;52.130;5.428;2023-04-16T13:42:12;14.20;;;7.03;;
73747;SDS011;62056;52.130;5.428;2023-04-16T13:44:39;8.20;;;4.80;;
73747;SDS011;62056;52.130;5.428;2023-04-16T13:47:06;10.68;;;5.68;;
73747;SDS011;62056;52.130;5.428;2023-04-16T13:49:33;9.73;;;5.78;;
73747;SDS011;62056;52.130;5.428;2023-04-16T13:52:01;11.80;;;6.07;;
73747;SDS011;62056;52.130;5.428;2023-04-16T13:54:31;14.48;;;5.97;;
73747;SDS011;62056;52.130;5.428;2023-04-16T13:56:57;11.80;;;5.30;;
73747;SDS011;62056;52.130;5.428;2023-04-16T13:59:24;10.02;;;5.10;;
73747;SDS011;62056;52.130;5.428;2023-04-16T14:01:51;5.55;;;4.47;;
73747;SDS011;62056;52.130;5.428;2023-04-16T14:04:18;13.25;;;5.40;;
73747;SDS011;62056;52.130;5.428;2023-04-16T14:06:48;9.43;;;5.05;;
73747;SDS011;62056;52.130;5.428;2023-04-16T14:09:15;8.93;;;4.63;;
73747;SDS011;62056;52.130;5.428;2023-04-16T14:11:41;10.00;;;5.68;;
73747;SDS011;62056;52.130;5.428;2023-04-16T14:14:08;7.07;;;4.20;;
73747;SDS011;62056;52.130;5.428;2023-04-16T14:16:35;7.10;;;4.50;;
73747;SDS011;62056;52.130;5.428;2023-04-16T14:19:02;12.98;;;5.25;;
73747;SDS011;62056;52.130;5.428;2023-04-16T14:21:29;8.73;;;5.13;;
73747;SDS011;62056;52.130;5.428;2023-04-16T14:23:56;9.70;;;5.55;;
73747;SDS011;62056;52.130;5.428;2023-04-16T14:26:23;13.13;;;5.40;;
73747;SDS011;62056;52.130;5.428;2023-04-16T14:28:49;7.28;;;4.93;;
73747;SDS011;62056;52.130;5.428;2023-04-16T14:31:16;12.30;;;5.10;;
73747;SDS011;62056;52.130;5.428;2023-04-16T14:33:44;8.53;;;5.17;;
73747;SDS011;62056;52.130;5.428;2023-04-16T14:36:11;13.60;;;4.95;;
73747;SDS011;62056;52.130;5.428;2023-04-16T14:38:38;13.65;;;5.72;;
73747;SDS011;62056;52.130;5.428;2023-04-16T14:41:05;11.95;;;5.10;;
73747;SDS011;62056;52.130;5.428;2023-04-16T14:43:32;5.63;;;4.43;;
73747;SDS011;62056;52.130;5.428;2023-04-16T14:45:59;15.67;;;5.87;;
73747;SDS011;62056;52.130;5.428;2023-04-16T14:48:26;7.55;;;4.78;;
73747;SDS011;62056;52.130;5.428;2023-04-16T14:50:52;17.55;;;5.88;;
73747;SDS011;62056;52.130;5.428;2023-04-16T14:53:21;9.25;;;5.63;;
73747;SDS011;62056;52.130;5.428;2023-04-16T14:55:50;10.05;;;4.65;;
73747;SDS011;62056;52.130;5.428;2023-04-16T14:58:18;11.20;;;5.67;;
73747;SDS011;62056;52.130;5.428;2023-04-16T15:00:44;7.03;;;4.72;;
73747;SDS011;62056;52.130;5.428;2023-04-16T15:03:38;8.75;;;4.60;;